sensor_id;sensor_type;location;lat;lon;timestamp;pressure;altitude;pressure_sealevel;temperature;humidity
23643;BME280;11998;55.788;37.572;2022-12-24T00:00:46;98133.38;;;3.53;100.00
23643;BME280;11998;55.788;37.572;2022-12-24T00:01:47;98123.78;;;3.52;100.00
23643;BME280;11998;55.788;37.572;2022-12-24T00:02:47;98130.69;;;3.56;100.00
23643;BME280;11998;55.788;37.572;2022-12-24T00:03:48;98127.31;;;3.51;100.00
23643;BME280;11998;55.788;37.572;2022-12-24T00:04:49;98130.88;;;3.44;100.00
23643;BME280;11998;55.788;37.572;2022-12-24T00:05:50;98133.56;;;3.41;100.00
23643;BME280;11998;55.788;37.572;2022-12-24T00:06:51;98127.44;;;3.42;100.00
23643;BME280;11998;55.788;37.572;2022-12-24T00:07:51;98128.31;;;3.42;100.00
23643;BME280;11998;55.788;37.572;2022-12-24T00:08:52;98130.88;;;3.45;100.00
23643;BME280;11998;55.788;37.572;2022-12-24T00:09:52;98130.88;;;3.45;100.00
23643;BME280;11998;55.788;37.572;2022-12-24T00:10:53;98127.44;;;3.42;100.00
23643;BME280;11998;55.788;37.572;2022-12-24T00:11:53;98125.72;;;3.41;100.00
23643;BME280;11998;55.788;37.572;2022-12-24T00:12:54;98129.16;;;3.43;100.00
23643;BME280;11998;55.788;37.572;2022-12-24T00:13:54;98139.59;;;3.44;100.00
23643;BME280;11998;55.788;37.572;2022-12-24T00:14:55;98125.66;;;3.44;100.00
23643;BME280;11998;55.788;37.572;2022-12-24T00:15:55;98132.69;;;3.40;100.00
23643;BME280;11998;55.788;37.572;2022-12-24T00:16:56;98132.72;;;3.39;100.00
23643;BME280;11998;55.788;37.572;2022-12-24T00:17:56;98121.38;;;3.40;100.00
23643;BME280;11998;55.788;37.572;2022-12-24T00:18:57;98128.31;;;3.41;100.00
23643;BME280;11998;55.788;37.572;2022-12-24T00:19:57;98130.88;;;3.45;100.00
23643;BME280;11998;55.788;37.572;2022-12-24T00:20:58;98123.84;;;3.49;100.00
23643;BME280;11998;55.788;37.572;2022-12-24T00:21:58;98129.09;;;3.49;100.00
23643;BME280;11998;55.788;37.572;2022-12-24T00:22:59;98130.75;;;3.53;100.00
23643;BME280;11998;55.788;37.572;2022-12-24T00:23:59;98124.59;;;3.56;100.00
23643;BME280;11998;55.788;37.572;2022-12-24T00:25:03;98134.13;;;3.61;100.00
23643;BME280;11998;55.788;37.572;2022-12-24T00:26:04;98129.88;;;3.54;100.00
23643;BME280;11998;55.788;37.572;2022-12-24T00:27:04;98128.09;;;3.56;100.00
23643;BME280;11998;55.788;37.572;2022-12-24T00:28:05;98130.69;;;3.56;100.00
23643;BME280;11998;55.788;37.572;2022-12-24T00:29:05;98128.84;;;3.64;100.00
23643;BME280;11998;55.788;37.572;2022-12-24T00:30:06;98149.78;;;3.64;100.00
23643;BME280;11998;55.788;37.572;2022-12-24T00:31:09;98144.56;;;3.63;100.00
23643;BME280;11998;55.788;37.572;2022-12-24T00:32:10;98142.88;;;3.60;100.00
23643;BME280;11998;55.788;37.572;2022-12-24T00:33:11;98148.19;;;3.54;100.00
23643;BME280;11998;55.788;37.572;2022-12-24T00:34:11;98143.00;;;3.51;100.00
23643;BME280;11998;55.788;37.572;2022-12-24T00:35:12;98148.25;;;3.51;100.00
23643;BME280;11998;55.788;37.572;2022-12-24T00:36:12;98134.31;;;3.49;100.00
23643;BME280;11998;55.788;37.572;2022-12-24T00:37:13;98142.94;;;3.54;100.00
23643;BME280;11998;55.788;37.572;2022-12-24T00:38:14;98147.44;;;3.47;100.00
23643;BME280;11998;55.788;37.572;2022-12-24T00:39:14;98140.44;;;3.46;100.00
23643;BME280;11998;55.788;37.572;2022-12-24T00:40:16;98142.22;;;3.44;100.00
23643;BME280;11998;55.788;37.572;2022-12-24T00:41:17;98139.59;;;3.47;100.00
23643;BME280;11998;55.788;37.572;2022-12-24T00:42:23;98141.31;;;3.45;100.00
23643;BME280;11998;55.788;37.572;2022-12-24T00:43:24;98143.91;;;3.50;100.00
23643;BME280;11998;55.788;37.572;2022-12-24T00:44:24;98143.09;;;3.45;100.00
23643;BME280;11998;55.788;37.572;2022-12-24T00:45:25;98144.81;;;3.47;100.00
23643;BME280;11998;55.788;37.572;2022-12-24T00:46:29;98152.66;;;3.46;100.00
23643;BME280;11998;55.788;37.572;2022-12-24T00:47:30;98143.09;;;3.45;100.00
23643;BME280;11998;55.788;37.572;2022-12-24T00:48:30;98146.50;;;3.50;100.00
23643;BME280;11998;55.788;37.572;2022-12-24T00:49:31;98149.91;;;3.55;100.00
23643;BME280;11998;55.788;37.572;2022-12-24T00:50:31;98147.28;;;3.55;100.00
23643;BME280;11998;55.788;37.572;2022-12-24T00:51:33;98143.88;;;3.51;100.00
23643;BME280;11998;55.788;37.572;2022-12-24T00:52:34;98158.72;;;3.51;100.00
23643;BME280;11998;55.788;37.572;2022-12-24T00:53:35;98150.84;;;3.51;100.00
23643;BME280;11998;55.788;37.572;2022-12-24T00:54:35;98152.66;;;3.47;100.00
23643;BME280;11998;55.788;37.572;2022-12-24T00:55:36;98154.41;;;3.48;100.00
23643;BME280;11998;55.788;37.572;2022-12-24T00:56:36;98156.16;;;3.45;100.00
23643;BME280;11998;55.788;37.572;2022-12-24T00:57:37;98150.09;;;3.43;100.00
23643;BME280;11998;55.788;37.572;2022-12-24T00:58:37;98157.00;;;3.47;100.00
23643;BME280;11998;55.788;37.572;2022-12-24T00:59:38;98149.97;;;3.52;100.00
23643;BME280;11998;55.788;37.572;2022-12-24T01:00:38;98156.94;;;3.53;100.00
23643;BME280;11998;55.788;37.572;2022-12-24T01:01:39;98153.41;;;3.54;100.00
23643;BME280;11998;55.788;37.572;2022-12-24T01:02:39;98162.16;;;3.53;100.00
23643;BME280;11998;55.788;37.572;2022-12-24T01:03:40;98153.47;;;3.51;100.00
23643;BME280;11998;55.788;37.572;2022-12-24T01:04:40;98152.53;;;3.55;100.00
23643;BME280;11998;55.788;37.572;2022-12-24T01:06:12;98160.50;;;3.49;100.00
23643;BME280;11998;55.788;37.572;2022-12-24T01:07:13;98156.16;;;3.48;100.00
23643;BME280;11998;55.788;37.572;2022-12-24T01:08:13;98150.84;;;3.51;100.00
23643;BME280;11998;55.788;37.572;2022-12-24T01:09:14;98139.56;;;3.49;100.00
23643;BME280;11998;55.788;37.572;2022-12-24T01:10:17;98143.03;;;3.49;100.00
23643;BME280;11998;55.788;37.572;2022-12-24T01:11:18;98144.78;;;3.49;100.00
23643;BME280;11998;55.788;37.572;2022-12-24T01:12:19;98137.78;;;3.51;100.00
23643;BME280;11998;55.788;37.572;2022-12-24T01:13:19;98139.56;;;3.46;100.00
23643;BME280;11998;55.788;37.572;2022-12-24T01:14:20;98139.56;;;3.46;100.00
23643;BME280;11998;55.788;37.572;2022-12-24T01:15:20;98147.44;;;3.44;100.00
23643;BME280;11998;55.788;37.572;2022-12-24T01:16:21;98150.03;;;3.46;100.00
23643;BME280;11998;55.788;37.572;2022-12-24T01:17:21;98148.25;;;3.51;100.00
23643;BME280;11998;55.788;37.572;2022-12-24T01:18:23;98144.69;;;3.55;100.00
23643;BME280;11998;55.788;37.572;2022-12-24T01:19:24;98135.94;;;3.56;100.00
23643;BME280;11998;55.788;37.572;2022-12-24T01:20:24;98137.78;;;3.51;100.00
23643;BME280;11998;55.788;37.572;2022-12-24T01:21:30;98143.91;;;3.47;100.00
23643;BME280;11998;55.788;37.572;2022-12-24T01:22:31;98136.06;;;3.47;100.00
23643;BME280;11998;55.788;37.572;2022-12-24T01:23:31;98134.31;;;3.49;100.00
23643;BME280;11998;55.788;37.572;2022-12-24T01:24:32;98147.38;;;3.50;100.00
23643;BME280;11998;55.788;37.572;2022-12-24T01:25:32;98146.50;;;3.50;100.00
23643;BME280;11998;55.788;37.572;2022-12-24T01:26:33;98147.63;;;3.35;100.00
23643;BME280;11998;55.788;37.572;2022-12-24T01:27:33;98149.22;;;3.42;100.00
23643;BME280;11998;55.788;37.572;2022-12-24T01:28:34;98157.09;;;3.42;100.00
23643;BME280;11998;55.788;37.572;2022-12-24T01:29:35;98159.72;;;3.41;100.00
23643;BME280;11998;55.788;37.572;2022-12-24T01:30:35;98150.03;;;3.46;100.00
23643;BME280;11998;55.788;37.572;2022-12-24T01:31:36;98153.63;;;3.40;100.00
23643;BME280;11998;55.788;37.572;2022-12-24T01:32:36;98149.16;;;3.47;100.00
23643;BME280;11998;55.788;37.572;2022-12-24T01:33:37;98149.09;;;3.51;100.00
23643;BME280;11998;55.788;37.572;2022-12-24T01:34:37;98150.78;;;3.56;100.00
23643;BME280;11998;55.788;37.572;2022-12-24T01:35:39;98153.47;;;3.51;100.00
23643;BME280;11998;55.788;37.572;2022-12-24T01:36:40;98156.13;;;3.46;100.00
23643;BME280;11998;55.788;37.572;2022-12-24T01:37:41;98153.59;;;3.43;100.00
23643;BME280;11998;55.788;37.572;2022-12-24T01:38:42;98147.41;;;3.49;100.00
23643;BME280;11998;55.788;37.572;2022-12-24T01:39:42;98148.28;;;3.48;100.00
23643;BME280;11998;55.788;37.572;2022-12-24T01:40:43;98156.28;;;3.39;100.00
23643;BME280;11998;55.788;37.572;2022-12-24T01:42:15;98157.09;;;3.42;100.00
23643;BME280;11998;55.788;37.572;2022-12-24T01:43:34;98146.03;;;3.22;100.00
23643;BME280;11998;55.788;37.572;2022-12-24T01:44:40;98154.56;;;3.36;100.00
23643;BME280;11998;55.788;37.572;2022-12-24T01:45:47;98151.28;;;3.20;100.00
23643;BME280;11998;55.788;37.572;2022-12-24T01:47:07;98157.19;;;3.35;100.00
23643;BME280;11998;55.788;37.572;2022-12-24T01:49:44;98155.56;;;3.28;100.00
23643;BME280;11998;55.788;37.572;2022-12-24T01:50:49;98161.56;;;3.34;100.00
23643;BME280;11998;55.788;37.572;2022-12-24T01:51:55;98164.09;;;3.40;100.00
23643;BME280;11998;55.788;37.572;2022-12-24T01:52:58;98146.66;;;3.41;100.00
23643;BME280;11998;55.788;37.572;2022-12-24T01:54:05;98157.00;;;3.47;100.00
23643;BME280;11998;55.788;37.572;2022-12-24T01:55:10;98151.81;;;3.44;100.00
23643;BME280;11998;55.788;37.572;2022-12-24T01:56:12;98153.53;;;3.46;100.00
23643;BME280;11998;55.788;37.572;2022-12-24T01:57:18;98154.44;;;3.44;100.00
23643;BME280;11998;55.788;37.572;2022-12-24T01:58:20;98158.00;;;3.40;100.00
23643;BME280;11998;55.788;37.572;2022-12-24T01:59:23;98154.53;;;3.38;100.00
23643;BME280;11998;55.788;37.572;2022-12-24T02:00:24;98162.34;;;3.41;100.00
23643;BME280;11998;55.788;37.572;2022-12-24T02:01:24;98160.56;;;3.43;100.00
23643;BME280;11998;55.788;37.572;2022-12-24T02:02:26;98156.13;;;3.49;100.00
23643;BME280;11998;55.788;37.572;2022-12-24T02:03:27;98166.56;;;3.51;100.00
23643;BME280;11998;55.788;37.572;2022-12-24T02:04:36;98169.38;;;3.37;100.00
23643;BME280;11998;55.788;37.572;2022-12-24T02:05:46;98163.34;;;3.32;100.00
23643;BME280;11998;55.788;37.572;2022-12-24T02:06:47;98164.94;;;3.42;100.00
23643;BME280;11998;55.788;37.572;2022-12-24T02:07:48;98165.75;;;3.46;100.00
23643;BME280;11998;55.788;37.572;2022-12-24T02:08:49;98162.22;;;3.50;100.00
23643;BME280;11998;55.788;37.572;2022-12-24T02:09:53;98165.81;;;3.43;100.00
23643;BME280;11998;55.788;37.572;2022-12-24T02:10:56;98176.13;;;3.52;100.00
23643;BME280;11998;55.788;37.572;2022-12-24T02:11:56;98167.41;;;3.53;100.00
23643;BME280;11998;55.788;37.572;2022-12-24T02:12:58;98172.81;;;3.41;100.00
23643;BME280;11998;55.788;37.572;2022-12-24T02:14:00;98173.88;;;3.28;100.00
23643;BME280;11998;55.788;37.572;2022-12-24T02:15:03;98173.81;;;3.31;100.00
23643;BME280;11998;55.788;37.572;2022-12-24T02:16:42;98175.63;;;3.27;100.00
23643;BME280;11998;55.788;37.572;2022-12-24T02:24:18;98174.72;;;3.30;100.00
23643;BME280;11998;55.788;37.572;2022-12-24T02:25:43;98191.97;;;3.43;100.00
23643;BME280;11998;55.788;37.572;2022-12-24T02:27:01;98175.34;;;3.45;100.00
23643;BME280;11998;55.788;37.572;2022-12-24T02:30:51;98183.22;;;3.44;100.00
23643;BME280;11998;55.788;37.572;2022-12-24T02:32:04;98184.88;;;3.51;100.00
23643;BME280;11998;55.788;37.572;2022-12-24T02:38:13;98183.47;;;3.27;100.00
23643;BME280;11998;55.788;37.572;2022-12-24T02:39:21;98188.84;;;3.16;100.00
23643;BME280;11998;55.788;37.572;2022-12-24T02:40:30;98184.63;;;3.06;100.00
23643;BME280;11998;55.788;37.572;2022-12-24T02:41:39;98190.78;;;3.02;100.00
23643;BME280;11998;55.788;37.572;2022-12-24T02:43:04;98188.84;;;3.16;100.00
23643;BME280;11998;55.788;37.572;2022-12-24T02:44:09;98186.28;;;3.13;100.00
23643;BME280;11998;55.788;37.572;2022-12-24T02:45:13;98183.66;;;3.13;100.00
23643;BME280;11998;55.788;37.572;2022-12-24T02:46:18;98188.94;;;3.10;100.00
23643;BME280;11998;55.788;37.572;2022-12-24T02:47:22;98185.47;;;3.08;100.00
23643;BME280;11998;55.788;37.572;2022-12-24T02:48:28;98189.00;;;3.04;100.00
23643;BME280;11998;55.788;37.572;2022-12-24T02:49:29;98197.66;;;3.09;100.00
23643;BME280;11998;55.788;37.572;2022-12-24T02:50:30;98196.78;;;3.10;100.00
23643;BME280;11998;55.788;37.572;2022-12-24T02:51:30;98190.56;;;3.17;100.00
23643;BME280;11998;55.788;37.572;2022-12-24T02:52:37;98188.81;;;3.19;100.00
23643;BME280;11998;55.788;37.572;2022-12-24T02:53:38;98191.41;;;3.19;100.00
23643;BME280;11998;55.788;37.572;2022-12-24T02:54:39;98191.50;;;3.15;100.00
23643;BME280;11998;55.788;37.572;2022-12-24T02:55:58;98191.47;;;3.16;100.00
23643;BME280;11998;55.788;37.572;2022-12-24T02:57:09;98183.56;;;3.22;100.00
23643;BME280;11998;55.788;37.572;2022-12-24T03:02:46;98182.50;;;3.36;100.00
23643;BME280;11998;55.788;37.572;2022-12-24T03:04:04;98179.91;;;3.33;100.00
23643;BME280;11998;55.788;37.572;2022-12-24T03:07:50;98176.50;;;3.28;100.00
23643;BME280;11998;55.788;37.572;2022-12-24T03:08:59;98174.88;;;3.17;100.00
23643;BME280;11998;55.788;37.572;2022-12-24T03:11:48;98183.72;;;3.07;100.00
23643;BME280;11998;55.788;37.572;2022-12-24T03:13:00;98171.38;;;3.18;100.00
23643;BME280;11998;55.788;37.572;2022-12-24T03:14:02;98176.56;;;3.21;100.00
23643;BME280;11998;55.788;37.572;2022-12-24T03:15:04;98181.84;;;3.18;100.00
23643;BME280;11998;55.788;37.572;2022-12-24T03:16:09;98167.00;;;3.19;100.00
23643;BME280;11998;55.788;37.572;2022-12-24T03:17:11;98174.84;;;3.20;100.00
23643;BME280;11998;55.788;37.572;2022-12-24T03:18:14;98173.16;;;3.16;100.00
23643;BME280;11998;55.788;37.572;2022-12-24T03:19:16;98170.38;;;3.29;100.00
23643;BME280;11998;55.788;37.572;2022-12-24T03:20:22;98164.19;;;3.33;100.00
23643;BME280;11998;55.788;37.572;2022-12-24T03:21:34;98169.59;;;3.20;100.00
23643;BME280;11998;55.788;37.572;2022-12-24T03:22:35;98166.88;;;3.30;100.00
23643;BME280;11998;55.788;37.572;2022-12-24T03:23:36;98160.91;;;3.18;100.00
23643;BME280;11998;55.788;37.572;2022-12-24T03:24:37;98162.63;;;3.22;100.00
23643;BME280;11998;55.788;37.572;2022-12-24T03:25:39;98163.38;;;3.29;100.00
23643;BME280;11998;55.788;37.572;2022-12-24T03:26:41;98161.72;;;3.25;100.00
23643;BME280;11998;55.788;37.572;2022-12-24T03:27:44;98162.75;;;3.13;100.00
23643;BME280;11998;55.788;37.572;2022-12-24T03:28:46;98165.34;;;3.15;100.00
23643;BME280;11998;55.788;37.572;2022-12-24T03:29:47;98164.38;;;3.20;100.00
23643;BME280;11998;55.788;37.572;2022-12-24T03:30:47;98164.50;;;3.13;100.00
23643;BME280;11998;55.788;37.572;2022-12-24T03:31:51;98166.88;;;3.30;100.00
23643;BME280;11998;55.788;37.572;2022-12-24T03:32:52;98176.44;;;3.31;100.00
23643;BME280;11998;55.788;37.572;2022-12-24T03:33:52;98172.28;;;3.16;100.00
23643;BME280;11998;55.788;37.572;2022-12-24T03:34:54;98167.84;;;3.21;100.00
23643;BME280;11998;55.788;37.572;2022-12-24T03:35:54;98173.16;;;3.16;100.00
23643;BME280;11998;55.788;37.572;2022-12-24T03:36:55;98173.09;;;3.19;100.00
23643;BME280;11998;55.788;37.572;2022-12-24T03:37:55;98170.59;;;3.13;100.00
23643;BME280;11998;55.788;37.572;2022-12-24T03:38:56;98181.06;;;3.12;100.00
23643;BME280;11998;55.788;37.572;2022-12-24T03:39:56;98169.56;;;3.22;100.00
23643;BME280;11998;55.788;37.572;2022-12-24T03:40:57;98180.97;;;3.18;100.00
23643;BME280;11998;55.788;37.572;2022-12-24T03:41:58;98171.31;;;3.21;100.00
23643;BME280;11998;55.788;37.572;2022-12-24T03:42:58;98173.94;;;3.24;100.00
23643;BME280;11998;55.788;37.572;2022-12-24T03:43:59;98174.81;;;3.23;100.00
23643;BME280;11998;55.788;37.572;2022-12-24T03:45:00;98174.94;;;3.14;100.00
23643;BME280;11998;55.788;37.572;2022-12-24T03:46:07;98173.22;;;3.12;100.00
23643;BME280;11998;55.788;37.572;2022-12-24T03:47:07;98178.50;;;3.07;100.00
23643;BME280;11998;55.788;37.572;2022-12-24T03:48:08;98174.16;;;3.06;100.00
23643;BME280;11998;55.788;37.572;2022-12-24T03:49:08;98173.38;;;3.00;100.00
23643;BME280;11998;55.788;37.572;2022-12-24T03:50:09;98169.88;;;3.02;100.00
23643;BME280;11998;55.788;37.572;2022-12-24T03:51:18;98173.44;;;2.95;100.00
23643;BME280;11998;55.788;37.572;2022-12-24T03:52:19;98178.63;;;2.97;100.00
23643;BME280;11998;55.788;37.572;2022-12-24T03:53:20;98175.97;;;3.03;100.00
23643;BME280;11998;55.788;37.572;2022-12-24T03:54:20;98185.50;;;3.05;100.00
23643;BME280;11998;55.788;37.572;2022-12-24T03:55:21;98181.19;;;3.03;100.00
23643;BME280;11998;55.788;37.572;2022-12-24T03:56:23;98177.81;;;2.93;100.00
23643;BME280;11998;55.788;37.572;2022-12-24T03:57:23;98175.09;;;3.02;100.00
23643;BME280;11998;55.788;37.572;2022-12-24T03:58:24;98168.19;;;2.95;100.00
23643;BME280;11998;55.788;37.572;2022-12-24T03:59:25;98171.66;;;2.97;100.00
23643;BME280;11998;55.788;37.572;2022-12-24T04:00:26;98175.06;;;3.04;100.00
23643;BME280;11998;55.788;37.572;2022-12-24T04:01:27;98168.09;;;3.04;100.00
23643;BME280;11998;55.788;37.572;2022-12-24T04:02:27;98169.91;;;2.98;100.00
23643;BME280;11998;55.788;37.572;2022-12-24T04:03:28;98169.19;;;2.88;100.00
23643;BME280;11998;55.788;37.572;2022-12-24T04:04:29;98178.75;;;2.89;100.00
23643;BME280;11998;55.788;37.572;2022-12-24T04:05:29;98170.06;;;2.87;100.00
23643;BME280;11998;55.788;37.572;2022-12-24T04:06:30;98175.25;;;2.90;100.00
23643;BME280;11998;55.788;37.572;2022-12-24T04:07:31;98180.63;;;2.78;100.00
23643;BME280;11998;55.788;37.572;2022-12-24T04:08:33;98179.66;;;2.83;100.00
23643;BME280;11998;55.788;37.572;2022-12-24T04:09:33;98180.53;;;2.85;100.00
23643;BME280;11998;55.788;37.572;2022-12-24T04:10:34;98190.16;;;2.82;100.00
23643;BME280;11998;55.788;37.572;2022-12-24T04:11:35;98183.25;;;2.78;100.00
23643;BME280;11998;55.788;37.572;2022-12-24T04:12:36;98179.63;;;2.88;100.00
23643;BME280;11998;55.788;37.572;2022-12-24T04:13:36;98177.88;;;2.90;100.00
23643;BME280;11998;55.788;37.572;2022-12-24T04:14:37;98183.97;;;2.89;100.00
23643;BME280;11998;55.788;37.572;2022-12-24T04:15:37;98180.53;;;2.85;100.00
23643;BME280;11998;55.788;37.572;2022-12-24T04:16:38;98182.31;;;2.82;100.00
23643;BME280;11998;55.788;37.572;2022-12-24T04:17:38;98188.38;;;2.87;100.00
23643;BME280;11998;55.788;37.572;2022-12-24T04:18:39;98176.94;;;2.92;100.00
23643;BME280;11998;55.788;37.572;2022-12-24T04:19:40;98176.97;;;2.91;100.00
23643;BME280;11998;55.788;37.572;2022-12-24T04:20:40;98178.75;;;2.89;100.00
23643;BME280;11998;55.788;37.572;2022-12-24T04:21:41;98177.03;;;2.85;100.00
23643;BME280;11998;55.788;37.572;2022-12-24T04:22:41;98181.28;;;2.95;100.00
23643;BME280;11998;55.788;37.572;2022-12-24T04:23:43;98171.81;;;2.85;100.00
23643;BME280;11998;55.788;37.572;2022-12-24T04:24:43;98175.19;;;2.93;100.00
23643;BME280;11998;55.788;37.572;2022-12-24T04:25:44;98177.81;;;2.93;100.00
23643;BME280;11998;55.788;37.572;2022-12-24T04:26:45;98171.78;;;2.88;100.00
23643;BME280;11998;55.788;37.572;2022-12-24T04:27:45;98168.19;;;2.95;100.00
23643;BME280;11998;55.788;37.572;2022-12-24T04:28:45;98173.53;;;2.87;100.00
23643;BME280;11998;55.788;37.572;2022-12-24T04:29:46;98180.38;;;2.96;100.00
23643;BME280;11998;55.788;37.572;2022-12-24T04:30:47;98170.00;;;2.90;100.00
23643;BME280;11998;55.788;37.572;2022-12-24T04:31:47;98167.47;;;2.84;100.00
23643;BME280;11998;55.788;37.572;2022-12-24T04:32:48;98171.84;;;2.82;100.00
23643;BME280;11998;55.788;37.572;2022-12-24T04:33:50;98166.72;;;2.76;100.00
23643;BME280;11998;55.788;37.572;2022-12-24T04:34:51;98178.97;;;2.69;100.00
23643;BME280;11998;55.788;37.572;2022-12-24T04:35:51;98166.59;;;2.86;100.00
23643;BME280;11998;55.788;37.572;2022-12-24T04:36:52;98165.88;;;2.74;100.00
23643;BME280;11998;55.788;37.572;2022-12-24T04:37:52;98176.25;;;2.80;100.00
23643;BME280;11998;55.788;37.572;2022-12-24T04:38:53;98171.91;;;2.79;100.00
23643;BME280;11998;55.788;37.572;2022-12-24T04:39:53;98171.06;;;2.75;100.00
23643;BME280;11998;55.788;37.572;2022-12-24T04:41:09;98165.75;;;2.81;100.00
23643;BME280;11998;55.788;37.572;2022-12-24T04:42:10;98151.03;;;2.73;100.00
23643;BME280;11998;55.788;37.572;2022-12-24T04:43:11;98156.25;;;2.76;100.00
23643;BME280;11998;55.788;37.572;2022-12-24T04:44:11;98161.53;;;2.70;100.00
23643;BME280;11998;55.788;37.572;2022-12-24T04:45:12;98158.72;;;2.85;100.00
23643;BME280;11998;55.788;37.572;2022-12-24T04:46:15;98159.75;;;2.75;100.00
23643;BME280;11998;55.788;37.572;2022-12-24T04:47:17;98153.50;;;2.88;100.00
23643;BME280;11998;55.788;37.572;2022-12-24T04:48:18;98149.34;;;2.70;100.00
23643;BME280;11998;55.788;37.572;2022-12-24T04:49:18;98147.56;;;2.72;100.00
23643;BME280;11998;55.788;37.572;2022-12-24T04:50:19;98155.38;;;2.77;100.00
23643;BME280;11998;55.788;37.572;2022-12-24T04:51:19;98151.84;;;2.79;100.00
23643;BME280;11998;55.788;37.572;2022-12-24T04:52:20;98147.34;;;2.90;100.00
23643;BME280;11998;55.788;37.572;2022-12-24T04:53:21;98156.94;;;2.90;100.00
23643;BME280;11998;55.788;37.572;2022-12-24T04:54:21;98154.44;;;2.81;100.00
23643;BME280;11998;55.788;37.572;2022-12-24T04:55:22;98152.66;;;2.86;100.00
23643;BME280;11998;55.788;37.572;2022-12-24T04:56:28;98156.25;;;2.76;100.00
23643;BME280;11998;55.788;37.572;2022-12-24T04:57:33;98155.34;;;2.78;100.00
23643;BME280;11998;55.788;37.572;2022-12-24T04:58:34;98153.66;;;2.73;100.00
23643;BME280;11998;55.788;37.572;2022-12-24T04:59:35;98156.16;;;2.82;100.00
23643;BME280;11998;55.788;37.572;2022-12-24T05:00:35;98156.13;;;2.83;100.00
23643;BME280;11998;55.788;37.572;2022-12-24T05:01:36;98151.91;;;2.75;100.00
23643;BME280;11998;55.788;37.572;2022-12-24T05:02:37;98157.06;;;2.81;100.00
23643;BME280;11998;55.788;37.572;2022-12-24T05:03:37;98157.13;;;2.76;100.00
23643;BME280;11998;55.788;37.572;2022-12-24T05:04:38;98156.09;;;2.88;100.00
23643;BME280;11998;55.788;37.572;2022-12-24T05:05:38;98153.50;;;2.88;100.00
23643;BME280;11998;55.788;37.572;2022-12-24T05:06:39;98156.09;;;2.88;100.00
23643;BME280;11998;55.788;37.572;2022-12-24T05:07:39;98150.16;;;2.75;100.00
23643;BME280;11998;55.788;37.572;2022-12-24T05:08:40;98154.47;;;2.78;100.00
23643;BME280;11998;55.788;37.572;2022-12-24T05:09:41;98156.22;;;2.79;100.00
23643;BME280;11998;55.788;37.572;2022-12-24T05:10:41;98159.63;;;2.84;100.00
23643;BME280;11998;55.788;37.572;2022-12-24T05:11:42;98163.16;;;2.80;100.00
23643;BME280;11998;55.788;37.572;2022-12-24T05:12:43;98154.34;;;2.90;100.00
23643;BME280;11998;55.788;37.572;2022-12-24T05:13:44;98160.50;;;2.86;100.00
23643;BME280;11998;55.788;37.572;2022-12-24T05:14:45;98161.34;;;2.85;100.00
23643;BME280;11998;55.788;37.572;2022-12-24T05:15:45;98159.75;;;2.75;100.00
23643;BME280;11998;55.788;37.572;2022-12-24T05:16:46;98166.66;;;2.79;100.00
23643;BME280;11998;55.788;37.572;2022-12-24T05:17:46;98163.13;;;2.83;100.00
23643;BME280;11998;55.788;37.572;2022-12-24T05:18:47;98171.84;;;2.82;100.00
23643;BME280;11998;55.788;37.572;2022-12-24T05:19:47;98155.31;;;2.80;100.00
23643;BME280;11998;55.788;37.572;2022-12-24T05:20:48;98153.63;;;2.76;100.00
23643;BME280;11998;55.788;37.572;2022-12-24T05:21:49;98157.16;;;2.73;100.00
23643;BME280;11998;55.788;37.572;2022-12-24T05:23:15;98150.13;;;2.77;100.00
23643;BME280;11998;55.788;37.572;2022-12-24T05:24:34;98158.03;;;2.74;100.00
23643;BME280;11998;55.788;37.572;2022-12-24T05:25:53;98153.63;;;2.77;100.00
23643;BME280;11998;55.788;37.572;2022-12-24T05:27:13;98152.81;;;2.74;100.00
23643;BME280;11998;55.788;37.572;2022-12-24T05:28:14;98161.59;;;2.65;100.00
23643;BME280;11998;55.788;37.572;2022-12-24T05:29:15;98152.78;;;2.75;100.00
23643;BME280;11998;55.788;37.572;2022-12-24T05:30:15;98150.94;;;2.82;100.00
23643;BME280;11998;55.788;37.572;2022-12-24T05:31:16;98150.91;;;2.83;100.00
23643;BME280;11998;55.788;37.572;2022-12-24T05:32:17;98145.66;;;2.86;100.00
23643;BME280;11998;55.788;37.572;2022-12-24T05:33:17;98138.78;;;2.78;100.00
23643;BME280;11998;55.788;37.572;2022-12-24T05:34:18;98145.72;;;2.82;100.00
23643;BME280;11998;55.788;37.572;2022-12-24T05:35:18;98142.31;;;2.77;100.00
23643;BME280;11998;55.788;37.572;2022-12-24T05:36:19;98140.41;;;2.88;100.00
23643;BME280;11998;55.788;37.572;2022-12-24T05:37:20;98139.47;;;2.92;100.00
23643;BME280;11998;55.788;37.572;2022-12-24T05:38:20;98150.81;;;2.91;100.00
23643;BME280;11998;55.788;37.572;2022-12-24T05:39:21;98135.94;;;2.94;100.00
23643;BME280;11998;55.788;37.572;2022-12-24T05:40:21;98139.44;;;2.95;100.00
23643;BME280;11998;55.788;37.572;2022-12-24T05:41:22;98142.03;;;2.95;100.00
23643;BME280;11998;55.788;37.572;2022-12-24T05:42:22;98141.97;;;3.01;100.00
23643;BME280;11998;55.788;37.572;2022-12-24T05:43:23;98135.84;;;3.04;100.00
23643;BME280;11998;55.788;37.572;2022-12-24T05:44:23;98133.16;;;3.08;100.00
23643;BME280;11998;55.788;37.572;2022-12-24T05:45:24;98137.50;;;3.11;100.00
23643;BME280;11998;55.788;37.572;2022-12-24T05:46:24;98126.16;;;3.12;100.00
23643;BME280;11998;55.788;37.572;2022-12-24T05:47:25;98132.13;;;3.18;100.00
23643;BME280;11998;55.788;37.572;2022-12-24T05:48:26;98127.72;;;3.22;100.00
23643;BME280;11998;55.788;37.572;2022-12-24T05:49:27;98133.81;;;3.24;100.00
23643;BME280;11998;55.788;37.572;2022-12-24T05:50:28;98135.53;;;3.25;100.00
23643;BME280;11998;55.788;37.572;2022-12-24T05:51:28;98143.38;;;3.27;100.00
23643;BME280;11998;55.788;37.572;2022-12-24T05:52:29;98139.03;;;3.26;100.00